This is the latest recevied weather packets stored in our database for station/object HI6LT. If no packets are shown the sender has not sent any weather packets the latest 10 day(s).
| Time | Temp. | Humidity | Pressure | Rain* | Wind** | Luminosity | Snow |
|---|---|---|---|---|---|---|---|
| 1778076975 | 16.67° C | 91% | 1037.8 hPa | 0 mm | - | - | - |
| 1778075370 | 15.56° C | 93% | 1037.7 hPa | 0 mm | - | - | - |
| 1778074357 | 16.67° C | 92% | 1037.9 hPa | 0 mm | - | - | - |
| 1778073104 | 16.67° C | 91% | 1037.8 hPa | 0 mm | - | - | - |
| 1778072774 | 14.44° C | 94% | 1037.4 hPa | 0 mm | - | - | - |
| 1778071660 | 15.56° C | 92% | 1037.8 hPa | 0 mm | - | - | - |
| 1778071300 | 15.56° C | 93% | 1037.7 hPa | 0 mm | - | - | - |
| 1778069597 | 12.22° C | 94% | 1036.5 hPa | 0 mm | - | - | - |
| 1778069498 | 14.44° C | 94% | 1037.4 hPa | 0 mm | - | - | - |
| 1778068958 | 14.44° C | 93% | 1037.4 hPa | 0 mm | - | - | - |
| 1778067941 | 12.22° C | 93% | 1036.2 hPa | 0 mm | - | - | - |
| 1778067697 | 13.33° C | 97% | 1037 hPa | 0 mm | - | - | - |
| 1778067132 | 12.22° C | 95% | 1036.1 hPa | 0 mm | - | - | - |
| 1778066257 | 12.22° C | 95% | 1036.7 hPa | 0 mm | - | - | - |
| 1778065897 | 12.22° C | 94% | 1036.5 hPa | 0 mm | - | - | - |
| 1778064106 | 12.22° C | 93% | 1036.2 hPa | 0 mm | - | - | - |
| 1778063556 | 11.67° C | 94% | 1036 hPa | 0 mm | - | - | - |
| 1778062305 | 12.22° C | 95% | 1036.1 hPa | 0 mm | - | - | - |
| 1778060865 | 12.78° C | 97% | 1036 hPa | 0 mm | - | - | - |
| 1778060505 | 12.78° C | 97% | 1036 hPa | 0 mm | - | - | - |
| 1778058705 | 12.22° C | 95% | 1036.1 hPa | 0 mm | - | - | - |
| 1778058375 | 14.44° C | 93% | 1035.2 hPa | 0 mm | - | - | - |
| 1778058219 | 14.44° C | 93% | 1035.2 hPa | 0 mm | - | - | - |
| 1778058164 | 12.22° C | 94% | 1035.7 hPa | 0 mm | - | - | - |
| 1778056903 | 12.78° C | 91% | 1035.6 hPa | 0 mm | - | - | - |
* Rain latest hour (hover to see other rain measurements)
** Current wind speed in m/s (hover to see current wind gust speed)